This is the latest recevied weather packets stored in our database for station/object GW7287. If no packets are shown the sender has not sent any weather packets the latest 10 day(s).
| Time | Temp. | Humidity | Pressure | Rain* | Wind** | Luminosity | Snow |
|---|---|---|---|---|---|---|---|
| 1778141180 | 8.89° C | 87% | 925.6 hPa | - | - | - | - |
| 1778133206 | 8.33° C | 87% | 925.5 hPa | - | - | - | - |
| 1778130186 | 8.89° C | 85% | 925.5 hPa | - | - | - | - |
| 1778119383 | 10° C | 80% | 926 hPa | - | - | - | - |
| 1778116983 | 10.56° C | 73% | 926.3 hPa | - | - | - | - |
| 1778110885 | 11.11° C | 67% | 926.3 hPa | - | - | - | - |
| 1778110471 | 11.11° C | 67% | 926.3 hPa | - | - | - | - |
| 1778107503 | 11.67° C | 63% | 926.3 hPa | - | - | - | - |
| 1778106370 | 12.78° C | 58% | 926.6 hPa | - | - | - | - |
| 1778103861 | 12.78° C | 58% | 926.6 hPa | - | - | - | - |
| 1778101442 | 13.33° C | 57% | 926.2 hPa | - | - | - | - |
| 1778100285 | 13.33° C | 57% | 926.2 hPa | - | - | - | - |
| 1778098359 | 10° C | 73% | 929 hPa | - | - | - | - |
| 1778096261 | 15° C | 48% | 925.9 hPa | - | - | - | - |
| 1778095447 | 7.22° C | 82% | 929.1 hPa | - | - | - | - |
| 1778090762 | 4.44° C | 93% | 928.8 hPa | - | - | - | - |
| 1778088545 | 4.44° C | 93% | 928.4 hPa | - | - | - | - |
| 1778083081 | 5° C | 90% | 928.9 hPa | - | - | - | - |
| 1778082790 | 5° C | 90% | 928.9 hPa | - | - | - | - |
| 1778064963 | 7.78° C | 79% | 929.3 hPa | - | - | - | - |
| 1778064362 | 7.78° C | 79% | 929.3 hPa | - | - | - | - |
| 1778017226 | 8.89° C | 76% | 929.3 hPa | - | - | - | - |
| 1777909931 | 17.78° C | 47% | 926.9 hPa | - | - | - | - |
| 1777839925 | 14.44° C | 62% | 926.2 hPa | - | - | - | - |
| 1777716071 | 15.56° C | 82% | 932 hPa | - | - | - | - |
* Rain since midnight (hover to see other rain measurements)
** Current wind speed in m/s (hover to see current wind gust speed)